Time;durP1;ratioP1;P1;durP2;ratioP2;P2;SDS_P1;SDS_P2;PMS_P1;PMS_P2;Temp;Humidity;BMP_temperature;BMP_pressure;BME280_temperature;BME280_humidity;BME280_pressure;Samples;Min_cycle;Max_cycle;Signal;HPM_P1;HPM_P2
2022/12/24 00:00:09;;;;;;;4.83;3.07;;;8.00;99.90;;;;;;4128610;28;20178;-63
2022/12/24 00:02:10;;;;;;;2.43;1.00;;;8.00;99.90;;;;;;4141446;28;20248;-62
2022/12/24 00:04:10;;;;;;;2.97;2.03;;;8.00;99.90;;;;;;4134516;28;20197;-63
2022/12/24 00:06:22;;;;;;;1.80;1.03;;;7.90;99.90;;;;;;4140941;28;20221;-62
2022/12/24 00:08:22;;;;;;;3.53;1.43;;;7.90;99.90;;;;;;4135765;28;20224;-62
2022/12/24 00:10:23;;;;;;;4.87;1.80;;;7.90;99.90;;;;;;4139518;28;20555;-61
2022/12/24 00:12:24;;;;;;;4.17;1.63;;;7.90;99.90;;;;;;4136167;28;20802;-63
2022/12/24 00:14:25;;;;;;;3.23;2.67;;;7.90;99.90;;;;;;4139594;28;20272;-63
2022/12/24 00:16:25;;;;;;;4.77;1.00;;;7.80;99.90;;;;;;4135868;28;20197;-64
2022/12/24 00:18:26;;;;;;;3.10;2.40;;;7.80;99.90;;;;;;4139481;28;20197;-64
2022/12/24 00:20:27;;;;;;;5.27;1.70;;;7.80;99.90;;;;;;4137047;28;20272;-63
2022/12/24 00:22:28;;;;;;;3.63;1.93;;;7.80;99.90;;;;;;4139471;28;20187;-65
2022/12/24 00:24:28;;;;;;;3.43;1.13;;;7.80;99.90;;;;;;4137003;28;20193;-62
2022/12/24 00:26:29;;;;;;;2.07;1.00;;;7.90;99.90;;;;;;4138358;28;20665;-62
2022/12/24 00:28:30;;;;;;;3.47;2.00;;;7.90;99.90;;;;;;4137353;28;20220;-62
2022/12/24 00:30:30;;;;;;;2.83;1.37;;;7.90;99.90;;;;;;4138685;28;20193;-62
2022/12/24 00:32:31;;;;;;;6.83;1.57;;;7.90;99.90;;;;;;4128472;28;20187;-63
2022/12/24 00:34:33;;;;;;;2.90;1.83;;;7.90;99.90;;;;;;4137774;28;20918;-63
2022/12/24 00:36:33;;;;;;;4.53;1.30;;;7.90;99.90;;;;;;4136564;28;20181;-62
2022/12/24 00:38:34;;;;;;;6.50;1.87;;;7.90;99.90;;;;;;4137670;28;20260;-62
2022/12/24 00:40:35;;;;;;;2.20;0.93;;;8.00;99.90;;;;;;4137337;28;20265;-62
2022/12/24 00:42:36;;;;;;;2.70;2.00;;;8.00;99.90;;;;;;4137765;28;20186;-64
2022/12/24 00:44:36;;;;;;;3.63;1.40;;;7.90;99.90;;;;;;4137528;28;20239;-62
2022/12/24 00:46:40;;;;;;;4.13;1.10;;;7.90;99.90;;;;;;4136611;28;20178;-63
2022/12/24 00:48:40;;;;;;;5.10;1.20;;;7.90;99.90;;;;;;4128380;28;20213;-63
2022/12/24 00:50:41;;;;;;;2.43;2.10;;;7.90;99.90;;;;;;4136639;28;20189;-63
2022/12/24 00:52:42;;;;;;;3.40;2.47;;;7.90;99.90;;;;;;4138116;28;20193;-63
2022/12/24 00:54:42;;;;;;;2.80;1.30;;;7.90;99.90;;;;;;4136392;28;20204;-63
2022/12/24 00:56:43;;;;;;;5.13;2.00;;;8.00;99.90;;;;;;4137317;28;20250;-63
2022/12/24 00:58:44;;;;;;;3.17;1.23;;;8.10;99.90;;;;;;4136278;28;20213;-63
2022/12/24 01:00:45;;;;;;;3.53;1.20;;;8.10;99.90;;;;;;4127784;28;20272;-63
2022/12/24 01:02:45;;;;;;;6.30;1.03;;;8.00;99.90;;;;;;4135868;28;20240;-63
2022/12/24 01:07:05;;;;;;;4.90;1.37;;;8.10;99.90;;;;;;4132336;28;20476;-63
2022/12/24 01:09:06;;;;;;;3.77;1.77;;;8.10;99.90;;;;;;4140856;28;20291;-63
2022/12/24 01:11:09;;;;;;;2.67;1.07;;;8.00;99.90;;;;;;4133034;28;20607;-62
2022/12/24 01:13:09;;;;;;;9.27;4.00;;;8.10;99.90;;;;;;4132070;28;20189;-63
2022/12/24 01:15:12;;;;;;;3.60;1.27;;;8.10;99.90;;;;;;4137730;28;20193;-63
2022/12/24 01:17:13;;;;;;;2.27;1.13;;;8.10;99.90;;;;;;4129016;28;20281;-62
2022/12/24 01:19:13;;;;;;;2.97;1.10;;;8.10;99.90;;;;;;4109073;28;20257;-63
2022/12/24 01:21:15;;;;;;;5.07;1.70;;;8.20;99.90;;;;;;4127624;28;20198;-63
2022/12/24 01:23:15;;;;;;;5.20;1.20;;;8.20;99.90;;;;;;4142536;28;20203;-63
2022/12/24 01:25:16;;;;;;;6.83;2.00;;;8.20;99.90;;;;;;4131653;28;20201;-63
2022/12/24 01:27:17;;;;;;;5.77;1.47;;;8.20;99.90;;;;;;4141795;28;20236;-63
2022/12/24 01:29:17;;;;;;;5.50;1.93;;;8.20;99.90;;;;;;4131650;28;20214;-63
2022/12/24 01:31:18;;;;;;;3.73;1.27;;;8.20;99.90;;;;;;4142596;28;20741;-63
2022/12/24 01:33:19;;;;;;;4.70;1.30;;;8.20;99.90;;;;;;4131257;28;20312;-63
2022/12/24 01:35:20;;;;;;;3.20;1.17;;;8.20;99.90;;;;;;4145313;28;20216;-65
2022/12/24 01:37:20;;;;;;;3.73;1.30;;;8.10;99.90;;;;;;4130844;28;20197;-60
2022/12/24 01:39:21;;;;;;;4.87;2.20;;;8.10;99.90;;;;;;4147250;28;20236;-62
2022/12/24 01:43:42;;;;;;;2.53;1.10;;;8.10;99.90;;;;;;4103762;28;20204;-63
2022/12/24 01:45:51;;;;;;;5.83;1.33;;;8.10;99.90;;;;;;4147211;28;20268;-63
2022/12/24 01:47:52;;;;;;;4.27;1.57;;;8.00;99.90;;;;;;4133123;28;20222;-63
2022/12/24 01:50:08;;;;;;;5.47;2.23;;;8.00;99.90;;;;;;4146027;28;20331;-63
2022/12/24 01:52:29;;;;;;;8.17;1.93;;;7.90;99.90;;;;;;4130243;28;20193;-64
2022/12/24 01:54:34;;;;;;;4.13;1.10;;;8.00;99.90;;;;;;4140702;28;20178;-64
2022/12/24 01:56:39;;;;;;;5.13;1.43;;;8.00;99.90;;;;;;4139070;28;20183;-66
2022/12/24 01:58:45;;;;;;;4.53;1.10;;;8.00;99.90;;;;;;4139099;28;20268;-62
2022/12/24 02:00:46;;;;;;;6.90;1.70;;;8.10;99.90;;;;;;4130036;28;20178;-62
2022/12/24 02:02:49;;;;;;;5.37;2.07;;;8.00;99.90;;;;;;4138138;28;20243;-63
2022/12/24 02:05:12;;;;;;;8.60;1.60;;;8.00;99.90;;;;;;4141520;28;20189;-63
2022/12/24 02:07:13;;;;;;;3.80;1.03;;;8.00;99.90;;;;;;4129395;28;20220;-62
2022/12/24 02:09:14;;;;;;;3.63;1.60;;;8.00;99.90;;;;;;4144422;28;20222;-63
2022/12/24 02:11:20;;;;;;;4.20;1.20;;;8.00;99.90;;;;;;4134017;28;20193;-62
2022/12/24 02:13:21;;;;;;;5.87;1.93;;;7.90;99.90;;;;;;4145362;28;20649;-62
2022/12/24 02:15:22;;;;;;;5.33;1.20;;;7.80;99.90;;;;;;4129512;28;20293;-62
2022/12/24 02:17:38;;;;;;;8.13;1.40;;;7.90;99.90;;;;;;4129241;28;20187;-63
2022/12/24 02:20:12;;;;;;;4.83;1.33;;;7.90;99.90;;;;;;4114044;28;20179;-63
2022/12/24 02:22:46;;;;;;;3.20;1.10;;;7.90;99.90;;;;;;4142112;28;20639;-63
2022/12/24 02:25:24;;;;;;;3.90;1.63;;;8.00;99.90;;;;;;4129695;28;20185;-62
2022/12/24 02:27:50;;;;;;;3.40;1.20;;;8.00;99.90;;;;;;4131537;28;20217;-62
2022/12/24 02:30:07;;;;;;;4.10;1.00;;;7.90;99.90;;;;;;4119010;28;20805;-62
2022/12/24 02:32:21;;;;;;;5.07;1.63;;;7.90;99.90;;;;;;4129582;28;20186;-62
2022/12/24 02:34:47;;;;;;;4.93;1.50;;;7.80;99.90;;;;;;4131086;28;20272;-63
2022/12/24 02:37:11;;;;;;;4.70;1.60;;;7.90;99.90;;;;;;4115829;28;20294;-63
2022/12/24 02:39:21;;;;;;;3.03;1.70;;;7.90;99.90;;;;;;4114092;28;20740;-65
2022/12/24 02:42:04;;;;;;;5.43;1.17;;;7.90;99.90;;;;;;4114222;28;20227;-63
2022/12/24 02:43:52;;;;;;;6.27;1.10;;;7.90;99.90;;;;;;4115830;28;20207;-62
2022/12/24 02:45:58;;;;;;;3.73;1.33;;;7.90;99.90;;;;;;4113276;28;20229;-63
2022/12/24 02:48:00;;;;;;;5.27;1.63;;;7.90;99.90;;;;;;4110887;28;20225;-62
2022/12/24 02:50:04;;;;;;;3.63;1.30;;;7.80;99.90;;;;;;4113509;28;20253;-62
2022/12/24 02:52:04;;;;;;;6.20;1.70;;;7.80;99.90;;;;;;4113486;28;20186;-62
2022/12/24 02:54:06;;;;;;;3.07;1.17;;;7.70;99.90;;;;;;4131234;28;20862;-64
2022/12/24 02:57:02;;;;;;;5.40;1.40;;;7.70;99.90;;;;;;4130814;28;20193;-64
2022/12/24 02:59:25;;;;;;;4.73;1.43;;;7.70;99.90;;;;;;4131247;28;20213;-61
2022/12/24 03:01:51;;;;;;;4.17;1.60;;;7.70;99.90;;;;;;4131002;28;20175;-64
2022/12/24 03:03:58;;;;;;;7.17;1.70;;;7.50;99.90;;;;;;4130997;28;20187;-64
2022/12/24 03:06:34;;;;;;;2.93;1.43;;;7.60;99.90;;;;;;4131005;28;20201;-61
2022/12/24 03:09:19;;;;;;;7.73;1.60;;;7.60;99.90;;;;;;4120696;28;20713;-63
2022/12/24 03:11:20;;;;;;;4.33;1.30;;;7.70;99.90;;;;;;4044144;29;20217;-63
2022/12/24 03:13:22;;;;;;;3.97;1.40;;;7.70;99.90;;;;;;4123115;28;20188;-63
2022/12/24 03:15:25;;;;;;;2.10;1.10;;;7.70;99.90;;;;;;4104282;28;20194;-63
2022/12/24 03:17:26;;;;;;;7.10;1.47;;;7.80;99.90;;;;;;4130386;28;20190;-63
2022/12/24 03:19:29;;;;;;;3.90;1.33;;;7.80;99.90;;;;;;4131114;28;20341;-63
2022/12/24 03:21:37;;;;;;;11.20;1.47;;;7.70;99.90;;;;;;4113997;28;20202;-63
2022/12/24 03:23:38;;;;;;;4.07;1.20;;;7.60;99.90;;;;;;4113700;28;20182;-62
2022/12/24 03:25:42;;;;;;;2.77;1.20;;;7.50;99.90;;;;;;4131142;28;20237;-62
2022/12/24 03:27:43;;;;;;;1.67;1.17;;;7.40;99.90;;;;;;4112734;28;20217;-62
2022/12/24 03:29:45;;;;;;;2.47;1.00;;;7.40;99.90;;;;;;4113406;28;20237;-62
2022/12/24 03:31:52;;;;;;;6.00;1.60;;;7.40;99.90;;;;;;4129103;28;20260;-62
2022/12/24 03:33:53;;;;;;;1.47;1.00;;;7.40;99.90;;;;;;4113020;28;20206;-62
2022/12/24 03:35:53;;;;;;;3.70;1.00;;;7.50;99.90;;;;;;4130375;28;20596;-62
2022/12/24 03:37:55;;;;;;;3.93;1.20;;;7.50;99.90;;;;;;4129690;28;20652;-62
2022/12/24 03:39:56;;;;;;;4.73;1.70;;;7.50;99.90;;;;;;4130373;28;20190;-62
2022/12/24 03:41:56;;;;;;;5.47;1.00;;;7.60;99.90;;;;;;4130585;28;20206;-62
2022/12/24 03:43:57;;;;;;;4.30;1.83;;;7.60;99.90;;;;;;4130547;28;20280;-65
2022/12/24 03:46:02;;;;;;;4.13;1.33;;;7.60;99.90;;;;;;4130367;28;20194;-62
2022/12/24 03:48:03;;;;;;;3.97;1.23;;;7.60;99.90;;;;;;4129611;28;20221;-62
2022/12/24 03:50:05;;;;;;;2.87;1.10;;;7.60;99.90;;;;;;4130454;28;20200;-62
2022/12/24 03:52:06;;;;;;;4.37;1.00;;;7.60;99.90;;;;;;4130201;28;20180;-62
2022/12/24 03:54:07;;;;;;;2.40;1.27;;;7.70;99.90;;;;;;4130280;28;20264;-62
2022/12/24 03:56:07;;;;;;;4.53;1.20;;;7.60;99.90;;;;;;4130348;28;20270;-62
2022/12/24 03:58:08;;;;;;;3.90;1.40;;;7.60;99.90;;;;;;4129195;28;20729;-62
2022/12/24 04:00:09;;;;;;;5.60;1.80;;;7.70;99.90;;;;;;4112734;28;20685;-62
2022/12/24 04:02:10;;;;;;;8.97;3.67;;;7.70;99.90;;;;;;4130016;28;20189;-62
2022/12/24 04:04:11;;;;;;;6.97;2.40;;;7.70;99.90;;;;;;4130170;28;20188;-62
2022/12/24 04:06:16;;;;;;;5.50;1.80;;;7.70;99.90;;;;;;4130176;28;20239;-62
2022/12/24 04:08:17;;;;;;;2.73;1.23;;;7.70;99.90;;;;;;4112229;28;20226;-62
2022/12/24 04:10:17;;;;;;;8.30;1.27;;;7.60;99.90;;;;;;4130155;28;20189;-62
2022/12/24 04:12:18;;;;;;;3.23;1.33;;;7.50;99.90;;;;;;4129999;28;20193;-62
2022/12/24 04:14:19;;;;;;;4.50;1.40;;;7.50;99.90;;;;;;4129963;28;20253;-62
2022/12/24 04:16:19;;;;;;;4.23;1.20;;;7.60;99.90;;;;;;4129898;28;20186;-62
2022/12/24 04:18:20;;;;;;;4.63;1.23;;;7.60;99.90;;;;;;4129499;28;20259;-62
2022/12/24 04:20:21;;;;;;;6.93;1.77;;;7.50;99.90;;;;;;4130203;28;20185;-62
2022/12/24 04:22:21;;;;;;;8.70;1.93;;;7.60;99.90;;;;;;4130409;28;20212;-63
2022/12/24 04:24:22;;;;;;;6.10;1.37;;;7.60;99.90;;;;;;4130042;28;20182;-62
2022/12/24 04:26:23;;;;;;;6.23;1.70;;;7.60;99.90;;;;;;4129404;28;20186;-62
2022/12/24 04:28:24;;;;;;;3.83;1.20;;;7.60;99.90;;;;;;4129533;28;20229;-63
2022/12/24 04:30:24;;;;;;;3.17;1.43;;;7.60;99.90;;;;;;4129705;28;20493;-63
2022/12/24 04:32:26;;;;;;;4.33;1.57;;;7.70;99.90;;;;;;4129663;28;20192;-63
2022/12/24 04:34:27;;;;;;;6.27;1.83;;;7.70;99.90;;;;;;4129379;28;20211;-63
2022/12/24 04:36:28;;;;;;;3.67;1.30;;;7.70;99.90;;;;;;4128663;28;20181;-63
2022/12/24 04:38:30;;;;;;;6.10;1.43;;;7.60;99.90;;;;;;4129567;28;20206;-63
2022/12/24 04:40:31;;;;;;;6.27;1.23;;;7.60;99.90;;;;;;4129513;28;20203;-63
2022/12/24 04:42:31;;;;;;;7.03;1.23;;;7.60;99.90;;;;;;4129556;28;20236;-63
2022/12/24 04:44:32;;;;;;;6.17;1.60;;;7.60;99.90;;;;;;4129290;28;20185;-63
2022/12/24 04:46:34;;;;;;;4.93;1.30;;;7.60;99.90;;;;;;4111205;28;20190;-63
2022/12/24 04:48:36;;;;;;;5.30;1.20;;;7.60;99.90;;;;;;4112447;28;20212;-62
2022/12/24 04:50:37;;;;;;;3.97;1.30;;;7.60;99.90;;;;;;4129388;28;20181;-63
2022/12/24 04:52:37;;;;;;;6.00;1.10;;;7.60;99.90;;;;;;4129419;28;20179;-63
2022/12/24 04:54:38;;;;;;;5.77;1.87;;;7.60;99.90;;;;;;4129299;28;20189;-63
2022/12/24 04:56:38;;;;;;;5.33;1.20;;;7.70;99.90;;;;;;4128607;28;20221;-63
2022/12/24 04:58:39;;;;;;;3.60;1.43;;;7.70;99.90;;;;;;4129839;28;20201;-62
2022/12/24 05:00:40;;;;;;;4.10;1.37;;;7.70;99.90;;;;;;4129346;28;20201;-63
2022/12/24 05:02:41;;;;;;;3.17;1.10;;;7.70;99.90;;;;;;4129014;28;20185;-63
2022/12/24 05:04:42;;;;;;;4.60;1.43;;;7.70;99.90;;;;;;4119815;28;20190;-63
2022/12/24 05:06:43;;;;;;;5.33;1.47;;;7.70;99.90;;;;;;4112642;28;20186;-63
2022/12/24 05:08:44;;;;;;;5.50;1.30;;;7.70;99.90;;;;;;4098246;28;20302;-63
2022/12/24 05:10:55;;;;;;;4.13;1.20;;;7.70;99.90;;;;;;4126337;28;20182;-63
2022/12/24 05:12:56;;;;;;;5.33;1.10;;;7.70;99.90;;;;;;4118339;28;20259;-62
2022/12/24 05:14:57;;;;;;;6.70;1.77;;;7.70;99.90;;;;;;4116645;28;20183;-62
2022/12/24 05:16:57;;;;;;;5.27;1.83;;;7.60;99.90;;;;;;4098786;29;20230;-62
2022/12/24 05:18:58;;;;;;;5.70;1.60;;;7.60;99.90;;;;;;4116473;28;20249;-63
2022/12/24 05:20:59;;;;;;;5.23;1.30;;;7.60;99.90;;;;;;4116471;28;20201;-62
2022/12/24 05:27:37;;;;;;;4.10;1.27;;;7.60;99.90;;;;;;4115724;28;20588;-62
2022/12/24 05:29:38;;;;;;;4.43;1.40;;;7.50;99.90;;;;;;4104615;28;20205;-63
2022/12/24 05:31:40;;;;;;;6.27;1.27;;;7.50;99.90;;;;;;4131540;28;20195;-63
2022/12/24 05:33:41;;;;;;;2.80;1.20;;;7.50;99.90;;;;;;4132103;28;20181;-62
2022/12/24 05:35:42;;;;;;;4.17;1.23;;;7.60;99.90;;;;;;4132133;28;20208;-62
2022/12/24 05:37:42;;;;;;;6.97;1.63;;;7.60;99.90;;;;;;4131490;28;20312;-63
2022/12/24 05:39:43;;;;;;;6.87;1.23;;;7.60;99.90;;;;;;4132062;28;20190;-62
2022/12/24 05:41:45;;;;;;;5.10;1.23;;;7.60;99.90;;;;;;4114553;28;20658;-63
2022/12/24 05:43:46;;;;;;;9.87;1.43;;;7.60;99.90;;;;;;4132021;28;20244;-63
2022/12/24 05:45:47;;;;;;;5.33;1.20;;;7.50;99.90;;;;;;4114591;28;20185;-63
2022/12/24 05:47:47;;;;;;;7.27;1.73;;;7.50;99.90;;;;;;4131328;28;20217;-63
2022/12/24 05:49:48;;;;;;;3.83;1.20;;;7.50;99.90;;;;;;4132015;28;20183;-63
2022/12/24 05:51:49;;;;;;;7.33;1.23;;;7.50;99.90;;;;;;4131758;28;20185;-62
2022/12/24 05:53:50;;;;;;;3.90;1.77;;;7.50;99.90;;;;;;4131890;28;20182;-63
2022/12/24 05:55:51;;;;;;;3.67;1.17;;;7.50;99.90;;;;;;4131933;28;20196;-63
2022/12/24 05:57:51;;;;;;;15.80;2.57;;;7.60;99.90;;;;;;4131119;28;20213;-63
2022/12/24 05:59:52;;;;;;;6.73;2.10;;;7.60;99.90;;;;;;4131782;28;20257;-63
2022/12/24 06:01:53;;;;;;;7.23;1.73;;;7.60;99.90;;;;;;4131758;28;20185;-63
2022/12/24 06:03:55;;;;;;;9.40;1.70;;;7.60;99.90;;;;;;4131650;28;20182;-63
2022/12/24 06:06:08;;;;;;;5.43;1.50;;;7.70;99.90;;;;;;4131616;28;20197;-63
2022/12/24 06:08:09;;;;;;;4.10;1.30;;;7.70;99.90;;;;;;4113726;28;20743;-63
2022/12/24 06:10:10;;;;;;;9.00;1.70;;;7.70;99.90;;;;;;4131697;28;20193;-63
2022/12/24 06:12:10;;;;;;;4.67;1.93;;;7.70;99.90;;;;;;4131574;28;20196;-62
2022/12/24 06:14:11;;;;;;;6.87;1.47;;;7.60;99.90;;;;;;4131358;28;20191;-63
2022/12/24 06:16:15;;;;;;;5.70;1.90;;;7.70;99.90;;;;;;4131640;28;20186;-62
2022/12/24 06:18:16;;;;;;;4.57;1.40;;;7.70;99.90;;;;;;4113751;28;20677;-62
2022/12/24 06:20:17;;;;;;;7.80;1.77;;;7.70;99.90;;;;;;4130986;28;20193;-63
2022/12/24 06:22:17;;;;;;;6.17;1.70;;;7.80;99.90;;;;;;4131459;28;20746;-63
2022/12/24 06:24:18;;;;;;;4.20;1.40;;;7.80;99.90;;;;;;4131475;28;20186;-63
2022/12/24 06:26:21;;;;;;;9.13;2.90;;;7.80;99.90;;;;;;4113879;28;20190;-62
2022/12/24 06:28:22;;;;;;;6.00;1.67;;;7.80;99.90;;;;;;4131402;28;20632;-63
2022/12/24 06:30:23;;;;;;;3.87;1.20;;;7.80;99.90;;;;;;4131281;28;20966;-63
2022/12/24 06:32:24;;;;;;;7.07;1.90;;;7.70;99.90;;;;;;4113932;28;20210;-63
2022/12/24 06:34:24;;;;;;;7.00;1.60;;;7.70;99.90;;;;;;4131349;28;20189;-63
2022/12/24 06:36:25;;;;;;;10.93;1.80;;;7.80;99.90;;;;;;4130668;28;20189;-63
2022/12/24 06:38:28;;;;;;;5.23;1.77;;;7.80;99.90;;;;;;4131292;28;20909;-63
2022/12/24 06:40:29;;;;;;;8.57;1.93;;;7.80;99.90;;;;;;4131283;28;20189;-62
2022/12/24 06:42:30;;;;;;;7.63;1.73;;;7.80;99.90;;;;;;4131114;28;20268;-62
2022/12/24 06:44:30;;;;;;;4.70;1.80;;;7.70;99.90;;;;;;4130868;28;20190;-63
2022/12/24 06:46:31;;;;;;;6.40;2.10;;;7.80;99.90;;;;;;4130708;28;20184;-63
2022/12/24 06:48:32;;;;;;;7.57;2.30;;;7.80;99.90;;;;;;4131513;28;20225;-63
2022/12/24 06:50:33;;;;;;;9.53;2.20;;;7.80;99.90;;;;;;4131502;28;20179;-63
2022/12/24 06:52:34;;;;;;;5.27;1.70;;;7.80;99.90;;;;;;4131144;28;20216;-63
2022/12/24 06:54:34;;;;;;;7.87;2.10;;;7.80;99.90;;;;;;4131079;28;20229;-63
2022/12/24 06:56:35;;;;;;;9.57;3.07;;;7.70;99.90;;;;;;4130457;28;20185;-62
2022/12/24 06:58:36;;;;;;;7.17;1.90;;;7.70;99.90;;;;;;4130824;28;20204;-62
2022/12/24 07:00:37;;;;;;;10.20;2.43;;;7.60;99.90;;;;;;4130921;28;20174;-62
2022/12/24 07:02:42;;;;;;;8.37;3.10;;;7.50;99.90;;;;;;4130940;28;20187;-63
2022/12/24 07:04:43;;;;;;;7.97;3.27;;;7.70;99.90;;;;;;4131060;28;20174;-63
2022/12/24 07:06:43;;;;;;;9.57;2.70;;;7.70;99.90;;;;;;4130167;28;20189;-62
2022/12/24 07:08:44;;;;;;;9.20;2.80;;;7.80;99.90;;;;;;4138442;28;20236;-62
2022/12/24 07:10:47;;;;;;;4.20;1.70;;;7.70;99.90;;;;;;4134796;28;20262;-62
2022/12/24 07:12:48;;;;;;;5.27;1.93;;;7.40;99.90;;;;;;4123284;28;20205;-63
2022/12/24 07:14:48;;;;;;;8.93;2.00;;;7.40;99.90;;;;;;4114668;28;20709;-63
2022/12/24 07:16:49;;;;;;;5.67;2.30;;;7.40;99.90;;;;;;4097087;29;20200;-63
2022/12/24 07:18:50;;;;;;;9.07;1.90;;;7.30;99.90;;;;;;4097558;29;20204;-63
2022/12/24 07:20:50;;;;;;;8.03;1.77;;;7.40;99.90;;;;;;4114892;28;20646;-63
2022/12/24 07:22:51;;;;;;;6.90;1.67;;;7.30;99.90;;;;;;4114620;28;20650;-63
2022/12/24 07:24:52;;;;;;;8.17;2.57;;;7.30;99.90;;;;;;4114668;28;20471;-62
2022/12/24 07:26:52;;;;;;;8.93;2.83;;;7.30;99.90;;;;;;4114181;28;20187;-63
2022/12/24 07:28:53;;;;;;;11.17;2.43;;;7.30;99.90;;;;;;4114771;28;20210;-62
2022/12/24 07:30:55;;;;;;;3.93;2.00;;;7.10;99.90;;;;;;4098131;29;20210;-62
2022/12/24 07:32:56;;;;;;;9.57;2.80;;;7.20;99.90;;;;;;4114232;28;20184;-63
2022/12/24 07:34:57;;;;;;;7.90;2.97;;;7.40;99.90;;;;;;4114842;28;20266;-63
2022/12/24 07:36:57;;;;;;;12.57;2.60;;;7.40;99.90;;;;;;4113760;28;20195;-63
2022/12/24 07:38:58;;;;;;;6.13;2.67;;;7.40;99.90;;;;;;4114390;28;20207;-63
2022/12/24 07:40:59;;;;;;;9.27;3.40;;;7.70;99.90;;;;;;4114474;28;20237;-63
2022/12/24 07:43:00;;;;;;;12.27;3.53;;;7.70;99.90;;;;;;4114870;28;20191;-63
2022/12/24 07:45:01;;;;;;;7.83;2.53;;;7.90;99.90;;;;;;4114781;28;20225;-63
2022/12/24 07:47:01;;;;;;;10.60;2.93;;;7.90;99.90;;;;;;4114029;28;20206;-64
2022/12/24 07:49:02;;;;;;;11.23;2.67;;;8.00;99.90;;;;;;4114352;28;20199;-61
2022/12/24 07:51:03;;;;;;;6.20;2.00;;;7.90;99.90;;;;;;4114523;28;20179;-64
2022/12/24 07:53:04;;;;;;;8.17;2.40;;;7.90;99.90;;;;;;4114474;28;20194;-61
2022/12/24 07:55:05;;;;;;;8.57;2.07;;;7.90;99.90;;;;;;4114114;28;20198;-62
2022/12/24 07:57:06;;;;;;;6.90;2.17;;;7.90;99.90;;;;;;4096308;29;20192;-61
2022/12/24 07:59:06;;;;;;;6.63;3.27;;;7.80;99.90;;;;;;4114127;28;20229;-62
2022/12/24 08:01:08;;;;;;;10.10;3.23;;;7.60;99.90;;;;;;4096845;29;20190;-62
2022/12/24 08:03:17;;;;;;;6.03;2.47;;;7.60;99.90;;;;;;4096901;29;20278;-62
2022/12/24 08:05:18;;;;;;;9.97;2.50;;;7.70;99.90;;;;;;4097058;29;20180;-62
2022/12/24 08:07:18;;;;;;;15.43;5.60;;;7.70;99.90;;;;;;4113273;28;20218;-62
2022/12/24 08:09:19;;;;;;;7.80;3.63;;;7.70;99.90;;;;;;4113987;28;20198;-62
2022/12/24 08:11:19;;;;;;;6.97;2.40;;;7.80;99.90;;;;;;4114034;28;20186;-62
2022/12/24 08:13:20;;;;;;;4.93;1.73;;;7.70;99.90;;;;;;4113888;28;20193;-62
2022/12/24 08:15:21;;;;;;;5.83;1.60;;;7.80;99.90;;;;;;4113878;28;20185;-62
2022/12/24 08:17:21;;;;;;;5.00;1.70;;;7.70;99.90;;;;;;4113433;28;20194;-63
2022/12/24 08:19:23;;;;;;;7.60;2.00;;;7.90;99.90;;;;;;4113793;28;20209;-63
2022/12/24 08:21:23;;;;;;;8.27;2.40;;;7.90;99.90;;;;;;4113806;28;20191;-63
2022/12/24 08:23:24;;;;;;;5.33;1.70;;;8.00;99.90;;;;;;4114126;28;20193;-63
2022/12/24 08:25:25;;;;;;;4.07;1.50;;;8.00;99.90;;;;;;4113563;28;20194;-63
2022/12/24 08:27:25;;;;;;;6.83;1.90;;;7.90;99.90;;;;;;4112920;28;20217;-63
2022/12/24 08:29:27;;;;;;;7.27;2.17;;;7.90;99.90;;;;;;4113740;28;20682;-62
2022/12/24 08:31:27;;;;;;;6.87;2.20;;;8.00;99.90;;;;;;4113549;28;20177;-62
2022/12/24 08:33:28;;;;;;;6.70;2.30;;;8.10;99.90;;;;;;4113537;28;20189;-62
2022/12/24 08:35:29;;;;;;;3.83;1.50;;;8.10;99.90;;;;;;4113483;28;20726;-62
2022/12/24 08:37:30;;;;;;;4.90;2.30;;;8.00;99.90;;;;;;4112776;28;20431;-62
2022/12/24 08:39:30;;;;;;;6.07;2.60;;;7.90;99.90;;;;;;4113206;28;20225;-62
2022/12/24 08:41:31;;;;;;;10.33;1.87;;;8.10;99.90;;;;;;4128589;28;20221;-62
2022/12/24 08:43:32;;;;;;;7.30;2.03;;;8.30;99.60;;;;;;4129305;28;20217;-62
2022/12/24 08:45:33;;;;;;;9.17;2.93;;;8.30;99.60;;;;;;4129336;28;20202;-62
2022/12/24 08:47:34;;;;;;;6.77;1.67;;;8.40;99.10;;;;;;4128674;28;20296;-64
2022/12/24 08:49:34;;;;;;;5.10;1.50;;;8.30;99.00;;;;;;4129483;28;20223;-62
2022/12/24 08:51:35;;;;;;;7.67;1.80;;;8.30;99.00;;;;;;4129284;28;20224;-63
2022/12/24 08:53:36;;;;;;;6.43;1.80;;;8.20;99.30;;;;;;4129483;28;20212;-63
2022/12/24 08:55:38;;;;;;;7.83;1.77;;;8.30;99.40;;;;;;4129377;28;20190;-63
2022/12/24 08:57:39;;;;;;;7.37;1.77;;;8.40;99.30;;;;;;4128943;28;20198;-63
2022/12/24 08:59:39;;;;;;;5.17;2.07;;;8.60;99.00;;;;;;4129469;28;20198;-63
2022/12/24 09:01:40;;;;;;;7.63;2.50;;;8.60;99.00;;;;;;4129120;28;20635;-63
2022/12/24 09:03:41;;;;;;;10.57;2.90;;;8.60;99.20;;;;;;4129597;28;20221;-63
2022/12/24 09:05:41;;;;;;;4.90;2.03;;;8.60;99.00;;;;;;4129056;28;20182;-63
2022/12/24 09:07:43;;;;;;;12.10;2.50;;;8.60;99.20;;;;;;4131757;28;20221;-63
2022/12/24 09:09:43;;;;;;;3.43;2.30;;;8.70;99.00;;;;;;4119150;28;20199;-63
2022/12/24 09:11:44;;;;;;;5.90;2.07;;;8.90;98.80;;;;;;4129561;28;20189;-63
2022/12/24 09:13:45;;;;;;;6.67;2.10;;;9.10;98.40;;;;;;4129590;28;20181;-63
2022/12/24 09:15:53;;;;;;;7.40;2.30;;;9.30;97.90;;;;;;4112053;28;20183;-63
2022/12/24 09:17:54;;;;;;;10.63;2.47;;;9.50;97.20;;;;;;4121555;28;20685;-63
2022/12/24 09:19:55;;;;;;;4.47;2.23;;;9.60;97.00;;;;;;4113609;28;20197;-63
2022/12/24 09:21:55;;;;;;;8.17;2.47;;;9.70;97.60;;;;;;4113418;28;20535;-63
2022/12/24 09:23:56;;;;;;;6.30;2.40;;;9.70;96.80;;;;;;4113481;28;20555;-63
2022/12/24 09:25:57;;;;;;;8.30;2.70;;;9.70;97.40;;;;;;4113492;28;20229;-63
2022/12/24 09:27:58;;;;;;;7.13;2.70;;;9.60;97.70;;;;;;4112808;28;20228;-63
2022/12/24 09:29:58;;;;;;;5.70;2.17;;;9.50;96.90;;;;;;4113351;28;20218;-63
2022/12/24 09:31:59;;;;;;;4.57;2.37;;;9.60;96.80;;;;;;4113143;28;20202;-63
2022/12/24 09:34:00;;;;;;;8.70;2.53;;;9.70;97.10;;;;;;4113142;28;20187;-63
2022/12/24 09:36:02;;;;;;;8.20;3.40;;;9.80;96.50;;;;;;4113241;28;20191;-63
2022/12/24 09:38:03;;;;;;;8.13;2.70;;;9.80;95.90;;;;;;4112724;28;20698;-62
2022/12/24 09:40:07;;;;;;;8.57;2.70;;;9.60;96.40;;;;;;4113139;28;20254;-62
2022/12/24 09:42:27;;;;;;;7.67;2.43;;;9.60;96.30;;;;;;4113072;28;20245;-62
2022/12/24 09:44:40;;;;;;;6.37;2.40;;;9.70;96.30;;;;;;4113084;28;20190;-62
2022/12/24 09:46:44;;;;;;;10.63;3.03;;;10.00;95.60;;;;;;4112386;28;20302;-62
2022/12/24 09:48:52;;;;;;;15.87;5.00;;;10.20;94.60;;;;;;4095508;29;20278;-62
2022/12/24 09:51:08;;;;;;;8.80;2.57;;;10.30;94.60;;;;;;4096023;29;20191;-62
2022/12/24 09:53:21;;;;;;;8.47;2.20;;;10.20;94.00;;;;;;4112791;28;20178;-62
2022/12/24 09:55:30;;;;;;;6.20;2.17;;;10.10;95.10;;;;;;4095700;28;20180;-62
2022/12/24 09:57:37;;;;;;;10.17;2.03;;;9.90;95.10;;;;;;4097985;29;20167;-62
2022/12/24 09:59:43;;;;;;;8.30;2.13;;;9.60;94.90;;;;;;4082626;29;20211;-62
2022/12/24 10:01:44;;;;;;;4.70;1.83;;;9.50;95.80;;;;;;4115767;28;20218;-62
2022/12/24 10:03:45;;;;;;;6.80;2.23;;;9.40;96.50;;;;;;4098688;29;20184;-63
2022/12/24 10:06:14;;;;;;;6.73;2.00;;;9.60;96.30;;;;;;4103829;28;20183;-63
2022/12/24 10:08:30;;;;;;;7.10;2.30;;;9.40;95.00;;;;;;4111793;28;20247;-63
2022/12/24 10:10:52;;;;;;;7.30;1.80;;;9.20;96.30;;;;;;4113997;28;20175;-63
2022/12/24 10:13:25;;;;;;;6.00;1.90;;;9.10;96.50;;;;;;4112505;28;20568;-63
2022/12/24 10:15:50;;;;;;;8.37;2.17;;;9.30;96.40;;;;;;4101295;28;20279;-63
2022/12/24 10:18:30;;;;;;;6.40;2.20;;;9.30;95.90;;;;;;4113532;28;20237;-63
2022/12/24 10:21:02;;;;;;;4.13;1.40;;;9.30;96.70;;;;;;4101227;28;20210;-63
2022/12/24 10:23:16;;;;;;;8.10;1.67;;;9.20;96.20;;;;;;4113774;28;20171;-63
2022/12/24 10:25:41;;;;;;;4.70;1.90;;;9.20;96.00;;;;;;4112812;28;20681;-63
2022/12/24 10:27:43;;;;;;;4.87;1.87;;;9.30;95.80;;;;;;4112730;28;21020;-63
2022/12/24 10:29:50;;;;;;;8.30;1.60;;;9.30;95.00;;;;;;4113913;28;20265;-62
2022/12/24 10:32:00;;;;;;;6.37;1.50;;;9.30;95.30;;;;;;4113461;28;20961;-63
2022/12/24 10:34:11;;;;;;;5.33;1.70;;;9.40;95.60;;;;;;4113631;28;20707;-63
2022/12/24 10:36:18;;;;;;;9.90;2.10;;;9.60;95.40;;;;;;4131019;28;20178;-62
2022/12/24 10:38:19;;;;;;;4.20;1.90;;;9.80;94.60;;;;;;4128931;28;20559;-62
2022/12/24 10:40:40;;;;;;;8.63;1.77;;;10.00;94.10;;;;;;4114087;28;20190;-62
2022/12/24 10:42:41;;;;;;;4.00;1.67;;;10.20;94.10;;;;;;4114112;28;20175;-63
2022/12/24 10:44:46;;;;;;;4.03;1.50;;;10.70;92.60;;;;;;4131144;28;20265;-63
2022/12/24 10:46:47;;;;;;;4.80;1.60;;;11.10;90.60;;;;;;4113047;28;20187;-63
2022/12/24 10:49:00;;;;;;;5.87;1.40;;;11.50;89.20;;;;;;4130975;28;20252;-63
2022/12/24 10:51:30;;;;;;;6.03;1.30;;;11.60;83.90;;;;;;4113901;28;20175;-63
2022/12/24 10:53:53;;;;;;;6.03;1.67;;;11.40;83.50;;;;;;4071751;28;20875;-63
2022/12/24 10:56:04;;;;;;;5.53;1.80;;;11.40;86.10;;;;;;4131524;28;20166;-64
2022/12/24 10:58:13;;;;;;;6.83;2.60;;;11.70;84.90;;;;;;4113288;28;20700;-63
2022/12/24 11:00:23;;;;;;;5.27;2.10;;;11.70;84.60;;;;;;4113695;28;20694;-63
2022/12/24 11:02:35;;;;;;;7.20;1.80;;;11.40;83.90;;;;;;4131105;28;20197;-63